createdAt,value
2018-06-13T00:02:03.694Z,2.90
2018-06-13T00:04:41.293Z,3.00
2018-06-13T00:07:17.670Z,3.23
2018-06-13T00:09:54.622Z,2.67
2018-06-13T00:12:32.281Z,2.77
2018-06-13T00:15:09.086Z,3.23
2018-06-13T00:17:46.119Z,2.97
2018-06-13T00:20:23.243Z,3.50
2018-06-13T00:23:00.317Z,3.33
2018-06-13T00:25:37.514Z,3.03
2018-06-13T00:28:14.952Z,3.20
2018-06-13T00:30:51.406Z,3.20
2018-06-13T00:33:27.806Z,3.20
2018-06-13T00:36:04.764Z,3.40
2018-06-13T00:38:41.847Z,2.73
2018-06-13T00:41:19.024Z,3.30
2018-06-13T00:43:56.063Z,2.90
2018-06-13T00:46:32.013Z,2.70
2018-06-13T00:49:08.952Z,3.40
2018-06-13T00:51:46.117Z,3.40
2018-06-13T00:54:22.426Z,3.97
2018-06-13T00:56:59.246Z,3.20
2018-06-13T00:59:36.919Z,3.35
2018-06-13T01:02:13.245Z,3.00
2018-06-13T01:04:48.681Z,2.60
2018-06-13T01:07:24.993Z,3.00
2018-06-13T01:10:01.829Z,2.90
2018-06-13T01:12:38.825Z,2.90
2018-06-13T01:15:15.229Z,2.70
2018-06-13T01:17:51.245Z,2.70
2018-06-13T01:20:28.677Z,3.00
2018-06-13T01:23:05.330Z,3.17
2018-06-13T01:25:42.275Z,2.80
2018-06-13T01:28:19.041Z,3.13
2018-06-13T01:30:55.465Z,3.23
2018-06-13T01:33:31.825Z,2.83
2018-06-13T01:36:09.994Z,3.00
2018-06-13T01:38:46.627Z,3.13
2018-06-13T01:41:23.262Z,3.00
2018-06-13T01:44:00.511Z,3.67
2018-06-13T01:46:36.670Z,3.20
2018-06-13T01:49:13.275Z,3.57
2018-06-13T01:51:52.435Z,3.73
2018-06-13T01:54:28.985Z,3.53
2018-06-13T01:57:05.770Z,3.33
2018-06-13T01:59:42.267Z,3.40
2018-06-13T02:02:18.735Z,3.17
2018-06-13T02:04:55.038Z,3.40
2018-06-13T02:07:35.688Z,3.57
2018-06-13T02:10:13.572Z,3.40
2018-06-13T02:12:50.835Z,3.20
2018-06-13T02:15:28.093Z,3.30
2018-06-13T02:18:04.823Z,3.43
2018-06-13T02:20:41.682Z,3.10
2018-06-13T02:23:18.385Z,3.40
2018-06-13T02:25:55.153Z,3.13
2018-06-13T02:28:31.604Z,3.10
2018-06-13T02:31:08.281Z,3.00
2018-06-13T02:33:44.535Z,2.80
2018-06-13T02:36:21.569Z,3.10
2018-06-13T02:38:59.212Z,3.23
2018-06-13T02:41:35.640Z,3.40
2018-06-13T02:44:12.223Z,2.70
2018-06-13T02:46:48.921Z,3.10
2018-06-13T02:49:25.222Z,3.00
2018-06-13T02:52:01.594Z,3.70
2018-06-13T02:54:40.028Z,3.20
2018-06-13T02:57:16.298Z,2.93
2018-06-13T02:59:52.768Z,3.37
2018-06-13T03:02:29.062Z,3.27
2018-06-13T03:05:05.567Z,3.17
2018-06-13T03:07:42.481Z,3.70
2018-06-13T03:10:22.337Z,3.77
2018-06-13T03:12:58.765Z,3.37
2018-06-13T03:15:35.632Z,4.07
2018-06-13T03:18:11.867Z,3.67
2018-06-13T03:20:48.024Z,3.30
2018-06-13T03:23:24.182Z,3.77
2018-06-13T03:26:00.475Z,2.73
2018-06-13T03:28:37.000Z,3.63
2018-06-13T03:31:13.441Z,3.30
2018-06-13T03:33:50.119Z,3.03
2018-06-13T03:36:26.485Z,2.90
2018-06-13T03:39:07.435Z,2.70
2018-06-13T03:41:43.620Z,3.20
2018-06-13T03:44:20.326Z,3.53
2018-06-13T03:46:57.176Z,3.20
2018-06-13T03:49:33.857Z,4.33
2018-06-13T03:52:10.919Z,3.17
2018-06-13T03:54:50.235Z,3.10
2018-06-13T03:57:27.325Z,2.90
2018-06-13T04:00:04.011Z,3.43
2018-06-13T04:02:41.543Z,3.20
2018-06-13T04:05:18.172Z,4.73
2018-06-13T04:07:55.032Z,2.80
2018-06-13T04:10:31.338Z,2.80
2018-06-13T04:13:08.602Z,3.07
2018-06-13T04:15:48.127Z,3.23
2018-06-13T04:18:24.637Z,2.83
2018-06-13T04:21:01.041Z,4.07
2018-06-13T04:23:37.122Z,3.30
2018-06-13T04:26:13.850Z,3.07
2018-06-13T04:28:50.293Z,4.53
2018-06-13T04:31:27.451Z,3.40
2018-06-13T04:34:03.777Z,3.67
2018-06-13T04:36:40.616Z,3.33
2018-06-13T04:39:18.834Z,3.50
2018-06-13T04:41:55.591Z,3.50
2018-06-13T04:44:32.439Z,3.80
2018-06-13T04:47:11.042Z,3.80
2018-06-13T04:49:47.990Z,4.10
2018-06-13T04:52:24.735Z,3.73
2018-06-13T04:55:01.553Z,3.40
2018-06-13T04:57:38.265Z,3.97
2018-06-13T05:00:14.586Z,4.43
2018-06-13T05:02:55.089Z,4.70
2018-06-13T05:05:32.238Z,4.20
2018-06-13T05:08:10.121Z,4.13
2018-06-13T05:10:47.466Z,5.20
2018-06-13T05:13:24.470Z,4.47
2018-06-13T05:16:01.315Z,6.00
2018-06-13T05:18:39.889Z,5.00
2018-06-13T05:21:18.174Z,5.13
2018-06-13T05:23:55.191Z,4.40
2018-06-13T05:26:32.565Z,4.60
2018-06-13T05:29:14.605Z,4.47
2018-06-13T05:31:52.829Z,4.80
2018-06-13T05:34:37.816Z,4.20
2018-06-13T05:37:17.486Z,5.00
2018-06-13T05:39:59.236Z,7.10
2018-06-13T05:42:37.888Z,4.90
2018-06-13T05:45:17.376Z,4.53
2018-06-13T05:47:58.105Z,4.57
2018-06-13T05:50:37.456Z,5.20
2018-06-13T05:56:15.226Z,4.47
2018-06-13T05:58:53.797Z,4.10
2018-06-13T06:01:30.314Z,4.10
2018-06-13T06:04:06.474Z,4.40
2018-06-13T06:06:42.889Z,4.80
2018-06-13T06:09:23.611Z,5.40
2018-06-13T06:12:02.973Z,5.70
2018-06-13T06:14:39.784Z,5.47
2018-06-13T06:17:16.981Z,4.90
2018-06-13T06:19:55.023Z,5.47
2018-06-13T06:22:31.303Z,5.60
2018-06-13T06:25:11.393Z,5.57
2018-06-13T06:27:47.991Z,4.93
2018-06-13T06:30:29.033Z,5.87
2018-06-13T06:33:05.053Z,6.50
2018-06-13T06:35:44.049Z,5.23
2018-06-13T06:38:24.001Z,5.67
2018-06-13T06:41:03.530Z,6.00
2018-06-13T06:43:40.327Z,5.67
2018-06-13T06:46:17.198Z,6.23
2018-06-13T06:48:54.252Z,6.00
2018-06-13T06:51:31.516Z,5.60
2018-06-13T06:54:11.589Z,5.93
2018-06-13T06:56:49.616Z,6.43
2018-06-13T06:59:29.264Z,6.10
2018-06-13T07:02:15.066Z,6.37
2018-06-13T07:04:52.423Z,7.07
2018-06-13T07:07:31.535Z,7.27
2018-06-13T07:10:13.164Z,5.53
2018-06-13T07:12:51.660Z,6.40
2018-06-13T07:15:32.497Z,6.23
2018-06-13T07:18:12.446Z,6.80
2018-06-13T07:20:55.438Z,6.27
2018-06-13T07:23:32.336Z,6.70
2018-06-13T07:26:17.731Z,7.50
2018-06-13T07:28:54.398Z,6.07
2018-06-13T07:31:34.886Z,5.90
2018-06-13T07:34:14.303Z,5.90
2018-06-13T07:36:54.548Z,5.67
2018-06-13T07:39:37.044Z,5.60
2018-06-13T07:42:16.451Z,5.57
2018-06-13T07:44:57.843Z,5.80
2018-06-13T07:47:34.266Z,6.70
2018-06-13T07:50:14.328Z,6.10
2018-06-13T07:52:56.480Z,6.47
2018-06-13T07:55:36.505Z,6.10
2018-06-13T07:58:17.429Z,5.77
2018-06-13T08:00:55.350Z,5.60
2018-06-13T08:03:37.694Z,5.80
2018-06-13T08:06:16.715Z,6.80
2018-06-13T08:08:57.653Z,5.40
2018-06-13T08:11:36.336Z,5.50
2018-06-13T08:14:20.077Z,4.80
2018-06-13T08:16:59.830Z,5.57
2018-06-13T08:19:39.105Z,5.20
2018-06-13T08:22:21.096Z,5.07
2018-06-13T08:24:59.419Z,4.83
2018-06-13T08:27:38.653Z,4.30
2018-06-13T08:30:17.498Z,4.00
2018-06-13T08:32:56.697Z,3.63
2018-06-13T08:35:39.792Z,3.30
2018-06-13T08:38:19.461Z,4.63
2018-06-13T08:41:05.376Z,4.47
2018-06-13T08:43:41.813Z,4.30
2018-06-13T08:46:21.123Z,4.17
2018-06-13T08:49:03.526Z,4.17
2018-06-13T08:51:43.535Z,3.70
2018-06-13T08:54:23.829Z,4.20
2018-06-13T08:57:04.429Z,3.60
2018-06-13T08:59:48.794Z,4.00
2018-06-13T09:02:25.085Z,3.53
2018-06-13T09:05:08.667Z,3.93
2018-06-13T09:07:45.388Z,3.90
2018-06-13T09:10:25.729Z,3.53
2018-06-13T09:13:08.269Z,3.97
2018-06-13T09:15:46.689Z,4.77
2018-06-13T09:18:28.247Z,3.93
2018-06-13T09:21:08.824Z,3.83
2018-06-13T09:23:45.863Z,4.43
2018-06-13T09:26:26.789Z,5.07
2018-06-13T09:29:07.172Z,4.57
2018-06-13T09:31:48.969Z,5.73
2018-06-13T09:34:27.533Z,4.83
2018-06-13T09:37:07.467Z,4.00
2018-06-13T09:39:46.534Z,3.93
2018-06-13T09:42:25.489Z,4.33
2018-06-13T09:45:07.428Z,4.97
2018-06-13T09:47:49.408Z,5.33
2018-06-13T09:50:29.739Z,4.77
2018-06-13T09:53:10.446Z,4.70
2018-06-13T09:55:51.341Z,4.40
2018-06-13T09:58:34.929Z,4.53
2018-06-13T10:01:16.715Z,4.67
2018-06-13T10:03:53.030Z,5.17
2018-06-13T10:06:34.569Z,4.53
2018-06-13T10:09:12.641Z,5.43
2018-06-13T10:11:52.521Z,4.20
2018-06-13T10:14:33.355Z,5.67
2018-06-13T10:17:12.629Z,5.50
2018-06-13T10:19:54.176Z,3.67
2018-06-13T10:22:33.059Z,3.73
2018-06-13T10:25:13.436Z,4.03
2018-06-13T10:27:55.121Z,3.77
2018-06-13T10:30:33.798Z,3.70
2018-06-13T10:33:15.313Z,4.83
2018-06-13T10:35:55.056Z,4.13
2018-06-13T10:38:40.367Z,3.90
2018-06-13T10:41:16.780Z,3.53
2018-06-13T10:44:00.354Z,3.40
2018-06-13T10:46:36.740Z,4.23
2018-06-13T10:49:16.406Z,3.80
2018-06-13T10:51:58.405Z,3.30
2018-06-13T10:54:35.572Z,3.50
2018-06-13T10:57:15.408Z,4.90
2018-06-13T10:59:58.563Z,4.53
2018-06-13T11:02:37.468Z,5.10
2018-06-13T11:05:18.367Z,4.00
2018-06-13T11:07:58.668Z,4.13
2018-06-13T11:10:38.249Z,4.80
2018-06-13T11:13:22.376Z,3.80
2018-06-13T11:15:59.610Z,4.30
2018-06-13T11:18:39.406Z,3.77
2018-06-13T11:21:20.249Z,4.57
2018-06-13T11:23:59.938Z,4.37
2018-06-13T11:26:39.511Z,4.17
2018-06-13T11:29:22.513Z,4.37
2018-06-13T11:31:59.957Z,4.03
2018-06-13T11:34:42.663Z,3.53
2018-06-13T11:37:24.188Z,4.33
2018-06-13T11:40:00.913Z,4.40
2018-06-13T11:42:43.668Z,3.27
2018-06-13T11:45:21.510Z,3.50
2018-06-13T11:48:02.024Z,3.50
2018-06-13T11:50:44.421Z,3.33
2018-06-13T11:53:24.747Z,3.17
2018-06-13T11:56:05.603Z,3.50
2018-06-13T11:58:45.255Z,3.07
2018-06-13T12:01:25.340Z,3.53
2018-06-13T12:04:03.191Z,2.20
2018-06-13T12:06:45.962Z,3.07
2018-06-13T12:09:30.316Z,3.70
2018-06-13T12:12:07.446Z,3.00
2018-06-13T12:14:45.077Z,3.30
2018-06-13T12:17:25.658Z,3.33
2018-06-13T12:20:04.631Z,2.90
2018-06-13T12:22:48.910Z,2.90
2018-06-13T12:25:27.538Z,2.50
2018-06-13T12:28:07.120Z,2.80
2018-06-13T12:30:50.868Z,3.03
2018-06-13T12:33:27.029Z,3.00
2018-06-13T12:36:07.930Z,2.77
2018-06-13T12:38:49.116Z,4.30
2018-06-13T12:41:29.493Z,2.63
2018-06-13T12:44:13.376Z,3.13
2018-06-13T12:46:52.435Z,2.60
2018-06-13T12:49:32.831Z,2.20
2018-06-13T12:52:11.236Z,3.40
2018-06-13T12:54:50.338Z,2.80
2018-06-13T12:57:30.942Z,2.33
2018-06-13T13:00:10.134Z,2.50
2018-06-13T13:02:49.988Z,2.70
2018-06-13T13:05:31.602Z,3.60
2018-06-13T13:08:10.590Z,3.00
2018-06-13T13:10:50.008Z,3.10
2018-06-13T13:13:31.685Z,1.90
2018-06-13T13:16:11.598Z,3.07
2018-06-13T13:18:55.158Z,3.30
2018-06-13T13:21:34.135Z,3.57
2018-06-13T13:24:13.118Z,3.00
2018-06-13T13:26:53.255Z,2.90
2018-06-13T13:29:33.516Z,2.73
2018-06-13T13:32:17.482Z,3.63
2018-06-13T13:34:57.224Z,3.10
2018-06-13T13:37:36.418Z,2.90
2018-06-13T13:40:19.416Z,3.87
2018-06-13T13:42:59.074Z,3.57
2018-06-13T13:45:39.247Z,2.60
2018-06-13T13:48:19.164Z,2.63
2018-06-13T13:50:58.696Z,3.03
2018-06-13T13:53:40.949Z,3.27
2018-06-13T13:56:19.358Z,3.10
2018-06-13T13:58:59.029Z,3.20
2018-06-13T14:01:40.462Z,3.33
2018-06-13T14:04:19.849Z,5.17
2018-06-13T14:07:03.460Z,3.00
2018-06-13T14:09:41.418Z,3.03
2018-06-13T14:12:25.738Z,3.07
2018-06-13T14:15:02.604Z,3.10
2018-06-13T14:17:42.333Z,2.30
2018-06-13T14:20:23.574Z,3.10
2018-06-13T14:23:04.272Z,3.00
2018-06-13T14:25:42.234Z,3.47
2018-06-13T14:28:25.651Z,3.10
2018-06-13T14:31:02.176Z,3.20
2018-06-13T14:33:44.425Z,3.33
2018-06-13T14:36:24.091Z,2.57
2018-06-13T14:39:03.512Z,3.03
2018-06-13T14:41:43.615Z,2.57
2018-06-13T14:44:23.485Z,3.30
2018-06-13T14:47:06.640Z,3.10
2018-06-13T14:49:48.127Z,2.33
2018-06-13T14:52:27.419Z,2.80
2018-06-13T14:55:05.199Z,3.20
2018-06-13T14:57:44.366Z,2.80
2018-06-13T15:00:23.708Z,2.83
2018-06-13T15:03:04.096Z,2.93
2018-06-13T15:05:44.214Z,2.70
2018-06-13T15:08:32.142Z,3.33
2018-06-13T15:11:08.984Z,3.60
2018-06-13T15:13:51.081Z,3.37
2018-06-13T15:16:28.118Z,3.40
2018-06-13T15:19:07.010Z,3.80
2018-06-13T15:21:47.302Z,2.93
2018-06-13T15:24:27.117Z,3.20
2018-06-13T15:27:06.781Z,3.40
2018-06-13T15:29:49.425Z,2.97
2018-06-13T15:32:28.114Z,2.90
2018-06-13T15:35:08.451Z,4.10
2018-06-13T15:37:50.565Z,3.37
2018-06-13T15:40:32.236Z,3.10
2018-06-13T15:43:13.373Z,3.50
2018-06-13T15:45:52.631Z,3.40
2018-06-13T15:48:34.832Z,3.93
2018-06-13T15:51:14.628Z,3.97
2018-06-13T15:53:55.283Z,4.47
2018-06-13T15:56:36.070Z,3.43
2018-06-13T15:59:15.500Z,3.90
2018-06-13T16:01:54.476Z,4.87
2018-06-13T16:04:33.273Z,3.80
2018-06-13T16:07:21.212Z,3.83
2018-06-13T16:09:57.716Z,3.10
2018-06-13T16:12:37.425Z,4.70
2018-06-13T16:15:19.476Z,3.60
2018-06-13T16:17:57.332Z,3.93
2018-06-13T16:20:36.167Z,3.60
2018-06-13T16:23:17.970Z,3.50
2018-06-13T16:25:57.154Z,3.67
2018-06-13T16:28:36.514Z,4.50
2018-06-13T16:31:19.751Z,4.37
2018-06-13T16:34:00.330Z,4.80
2018-06-13T16:36:38.384Z,4.63
2018-06-13T16:39:17.810Z,4.30
2018-06-13T16:41:57.006Z,4.00
2018-06-13T16:44:36.093Z,4.43
2018-06-13T16:47:19.996Z,3.50
2018-06-13T16:49:58.941Z,3.77
2018-06-13T16:52:46.514Z,3.03
2018-06-13T16:55:24.195Z,3.80
2018-06-13T16:58:04.934Z,3.77
2018-06-13T17:00:41.321Z,3.93
2018-06-13T17:03:17.896Z,3.30
2018-06-13T17:05:55.606Z,4.03
2018-06-13T17:08:34.236Z,3.63
2018-06-13T17:11:10.493Z,3.47
2018-06-13T17:13:48.713Z,3.67
2018-06-13T17:16:25.580Z,3.43
2018-06-13T17:19:06.188Z,3.80
2018-06-13T17:21:47.972Z,3.90
2018-06-13T17:24:24.836Z,3.10
2018-06-13T17:27:01.969Z,4.10
2018-06-13T17:29:41.356Z,3.27
2018-06-13T17:32:18.367Z,3.40
2018-06-13T17:34:58.037Z,3.13
2018-06-13T17:37:39.304Z,3.70
2018-06-13T17:40:25.357Z,3.20
2018-06-13T17:43:03.701Z,3.40
2018-06-13T17:45:43.897Z,3.27
2018-06-13T17:48:25.870Z,3.73
2018-06-13T17:51:08.574Z,4.53
2018-06-13T17:53:49.977Z,3.00
2018-06-13T17:56:28.219Z,4.07
2018-06-13T17:59:08.639Z,3.70
2018-06-13T18:01:47.140Z,3.40
2018-06-13T18:04:26.277Z,4.00
2018-06-13T18:07:07.425Z,3.97
2018-06-13T18:09:45.868Z,3.90
2018-06-13T18:12:22.955Z,3.90
2018-06-13T18:14:59.608Z,3.70
2018-06-13T18:17:35.603Z,3.70
2018-06-13T18:20:12.209Z,4.10
2018-06-13T18:22:53.205Z,3.70
2018-06-13T18:25:29.981Z,3.90
2018-06-13T18:28:10.353Z,4.07
2018-06-13T18:30:49.010Z,4.00
2018-06-13T18:33:26.157Z,3.80
2018-06-13T18:36:07.151Z,4.00
2018-06-13T18:38:52.981Z,4.03
2018-06-13T18:41:31.248Z,3.87
2018-06-13T18:46:51.982Z,3.33
2018-06-13T18:49:33.038Z,4.20
2018-06-13T18:52:09.780Z,4.10
2018-06-13T18:54:46.362Z,3.47
2018-06-13T18:57:24.135Z,4.23
2018-06-13T19:00:00.070Z,3.47
2018-06-13T19:02:36.710Z,3.90
2018-06-13T19:05:15.643Z,3.90
2018-06-13T19:07:53.016Z,3.37
2018-06-13T19:10:33.419Z,3.67
2018-06-13T19:13:14.880Z,3.67
2018-06-13T19:15:54.024Z,3.60
2018-06-13T19:18:31.552Z,3.40
2018-06-13T19:21:08.131Z,3.23
2018-06-13T19:23:45.096Z,3.40
2018-06-13T19:26:21.918Z,3.60
2018-06-13T19:29:06.100Z,2.83
2018-06-13T19:31:42.811Z,3.27
2018-06-13T19:34:21.004Z,3.10
2018-06-13T19:37:02.419Z,3.07
2018-06-13T19:39:42.686Z,3.40
2018-06-13T19:42:19.320Z,3.50
2018-06-13T19:45:01.269Z,3.00
2018-06-13T19:47:45.487Z,2.77
2018-06-13T19:50:22.257Z,3.20
2018-06-13T19:53:08.931Z,3.07
2018-06-13T19:55:50.497Z,2.90
2018-06-13T19:58:26.958Z,3.30
2018-06-13T20:01:06.253Z,3.30
2018-06-13T20:03:47.596Z,3.30
2018-06-13T20:06:24.620Z,3.77
2018-06-13T20:09:06.908Z,3.50
2018-06-13T20:11:43.390Z,3.33
2018-06-13T20:14:27.098Z,3.07
2018-06-13T20:17:10.738Z,2.90
2018-06-13T20:19:49.245Z,3.47
2018-06-13T20:22:26.452Z,3.40
2018-06-13T20:25:08.565Z,3.80
2018-06-13T20:27:51.054Z,3.60
2018-06-13T20:30:32.729Z,3.80
2018-06-13T20:33:09.065Z,3.83
2018-06-13T20:35:49.108Z,4.00
2018-06-13T20:38:25.538Z,3.37
2018-06-13T20:41:02.798Z,4.00
2018-06-13T20:43:40.434Z,3.60
2018-06-13T20:46:18.049Z,3.73
2018-06-13T20:48:55.122Z,3.50
2018-06-13T20:51:37.130Z,3.40
2018-06-13T20:54:13.575Z,3.27
2018-06-13T20:56:50.245Z,3.40
2018-06-13T20:59:29.390Z,4.00
2018-06-13T21:02:06.077Z,3.77
2018-06-13T21:04:42.618Z,3.60
2018-06-13T21:07:20.592Z,3.30
2018-06-13T21:09:56.858Z,3.50
2018-06-13T21:12:33.435Z,3.53
2018-06-13T21:15:13.009Z,3.63
2018-06-13T21:17:48.909Z,3.50
2018-06-13T21:20:25.386Z,3.40
2018-06-13T21:23:02.701Z,3.57
2018-06-13T21:25:39.164Z,3.10
2018-06-13T21:28:14.765Z,3.30
2018-06-13T21:30:51.632Z,3.60
2018-06-13T21:33:28.895Z,3.50
2018-06-13T21:36:05.565Z,3.67
2018-06-13T21:38:41.961Z,3.47
2018-06-13T21:41:18.695Z,3.20
2018-06-13T21:43:54.668Z,6.50
2018-06-13T21:46:32.971Z,3.33
2018-06-13T21:49:10.991Z,3.97
2018-06-13T21:51:47.663Z,3.60
2018-06-13T21:54:24.467Z,4.60
2018-06-13T21:57:01.167Z,3.53
2018-06-13T21:59:37.679Z,3.67
2018-06-13T22:02:17.309Z,3.83
2018-06-13T23:37:49.615Z,3.20
2018-06-13T23:40:26.081Z,3.63
2018-06-13T23:43:02.680Z,3.43
2018-06-13T23:45:39.676Z,3.50
2018-06-13T23:48:16.560Z,3.50
2018-06-13T23:50:52.887Z,3.50
2018-06-13T23:53:31.685Z,3.37
2018-06-13T23:56:08.044Z,3.10
2018-06-13T23:58:45.501Z,3.20
